sensor_id;sensor_type;location;lat;lon;timestamp;P1;durP1;ratioP1;P2;durP2;ratioP2
79478;SDS011;68943;49.472;17.970;2024-02-28T00:01:04;32.90;;;20.30;;
79478;SDS011;68943;49.472;17.970;2024-02-28T00:03:30;36.45;;;21.05;;
79478;SDS011;68943;49.472;17.970;2024-02-28T00:05:58;34.20;;;21.05;;
79478;SDS011;68943;49.472;17.970;2024-02-28T00:08:24;31.48;;;21.48;;
79478;SDS011;68943;49.472;17.970;2024-02-28T00:10:50;35.40;;;20.75;;
79478;SDS011;68943;49.472;17.970;2024-02-28T00:13:16;31.38;;;18.23;;
79478;SDS011;68943;49.472;17.970;2024-02-28T00:15:42;30.05;;;18.88;;
79478;SDS011;68943;49.472;17.970;2024-02-28T00:18:08;30.70;;;19.60;;
79478;SDS011;68943;49.472;17.970;2024-02-28T00:20:35;29.38;;;19.25;;
79478;SDS011;68943;49.472;17.970;2024-02-28T00:23:01;34.17;;;21.35;;
79478;SDS011;68943;49.472;17.970;2024-02-28T00:25:27;39.10;;;22.90;;
79478;SDS011;68943;49.472;17.970;2024-02-28T00:27:53;40.05;;;22.10;;
79478;SDS011;68943;49.472;17.970;2024-02-28T00:30:19;41.00;;;21.95;;
79478;SDS011;68943;49.472;17.970;2024-02-28T00:32:45;42.13;;;22.90;;
79478;SDS011;68943;49.472;17.970;2024-02-28T00:35:11;37.15;;;20.52;;
79478;SDS011;68943;49.472;17.970;2024-02-28T00:37:38;41.05;;;21.15;;
79478;SDS011;68943;49.472;17.970;2024-02-28T00:40:04;35.17;;;18.83;;
79478;SDS011;68943;49.472;17.970;2024-02-28T00:42:30;36.88;;;20.73;;
79478;SDS011;68943;49.472;17.970;2024-02-28T00:44:56;34.08;;;19.63;;
79478;SDS011;68943;49.472;17.970;2024-02-28T00:47:22;37.85;;;21.05;;
79478;SDS011;68943;49.472;17.970;2024-02-28T00:49:48;38.05;;;19.65;;
79478;SDS011;68943;49.472;17.970;2024-02-28T00:52:15;39.90;;;21.02;;
79478;SDS011;68943;49.472;17.970;2024-02-28T00:54:41;40.55;;;19.38;;
79478;SDS011;68943;49.472;17.970;2024-02-28T00:57:07;34.88;;;20.85;;
79478;SDS011;68943;49.472;17.970;2024-02-28T00:59:33;31.98;;;19.70;;
79478;SDS011;68943;49.472;17.970;2024-02-28T01:01:59;33.70;;;19.65;;
79478;SDS011;68943;49.472;17.970;2024-02-28T01:04:25;40.63;;;20.30;;
79478;SDS011;68943;49.472;17.970;2024-02-28T01:06:51;36.70;;;20.48;;
79478;SDS011;68943;49.472;17.970;2024-02-28T01:09:18;37.13;;;20.20;;
79478;SDS011;68943;49.472;17.970;2024-02-28T01:11:44;36.30;;;21.13;;
79478;SDS011;68943;49.472;17.970;2024-02-28T01:14:10;41.25;;;23.05;;
79478;SDS011;68943;49.472;17.970;2024-02-28T01:16:36;39.78;;;21.38;;
79478;SDS011;68943;49.472;17.970;2024-02-28T01:19:02;38.30;;;20.75;;
79478;SDS011;68943;49.472;17.970;2024-02-28T01:21:29;37.08;;;21.20;;
79478;SDS011;68943;49.472;17.970;2024-02-28T01:23:55;35.30;;;20.75;;
79478;SDS011;68943;49.472;17.970;2024-02-28T01:26:21;35.63;;;21.60;;
79478;SDS011;68943;49.472;17.970;2024-02-28T01:28:47;33.22;;;20.08;;
79478;SDS011;68943;49.472;17.970;2024-02-28T01:31:15;39.45;;;20.48;;
79478;SDS011;68943;49.472;17.970;2024-02-28T01:33:41;34.05;;;18.83;;
79478;SDS011;68943;49.472;17.970;2024-02-28T01:36:07;32.70;;;18.42;;
79478;SDS011;68943;49.472;17.970;2024-02-28T01:38:34;36.00;;;20.52;;
79478;SDS011;68943;49.472;17.970;2024-02-28T01:41:00;34.42;;;20.27;;
79478;SDS011;68943;49.472;17.970;2024-02-28T01:43:26;32.50;;;19.35;;
79478;SDS011;68943;49.472;17.970;2024-02-28T01:45:52;34.70;;;19.05;;
79478;SDS011;68943;49.472;17.970;2024-02-28T01:48:18;31.55;;;19.92;;
79478;SDS011;68943;49.472;17.970;2024-02-28T01:50:44;29.73;;;18.60;;
79478;SDS011;68943;49.472;17.970;2024-02-28T01:53:10;35.03;;;19.30;;
79478;SDS011;68943;49.472;17.970;2024-02-28T01:55:38;29.85;;;17.73;;
79478;SDS011;68943;49.472;17.970;2024-02-28T01:58:05;30.33;;;18.73;;
79478;SDS011;68943;49.472;17.970;2024-02-28T02:00:34;27.50;;;16.80;;
79478;SDS011;68943;49.472;17.970;2024-02-28T02:03:02;29.38;;;17.05;;
79478;SDS011;68943;49.472;17.970;2024-02-28T02:05:28;31.42;;;16.83;;
79478;SDS011;68943;49.472;17.970;2024-02-28T02:07:56;30.95;;;18.98;;
79478;SDS011;68943;49.472;17.970;2024-02-28T02:10:23;32.17;;;19.50;;
79478;SDS011;68943;49.472;17.970;2024-02-28T02:12:49;35.28;;;18.35;;
79478;SDS011;68943;49.472;17.970;2024-02-28T02:15:15;33.80;;;18.05;;
79478;SDS011;68943;49.472;17.970;2024-02-28T02:17:41;30.48;;;18.35;;
79478;SDS011;68943;49.472;17.970;2024-02-28T02:20:09;29.63;;;17.60;;
79478;SDS011;68943;49.472;17.970;2024-02-28T02:22:39;28.08;;;16.52;;
79478;SDS011;68943;49.472;17.970;2024-02-28T02:25:05;31.70;;;16.85;;
79478;SDS011;68943;49.472;17.970;2024-02-28T02:27:31;33.45;;;17.85;;
79478;SDS011;68943;49.472;17.970;2024-02-28T02:29:57;34.97;;;17.90;;
79478;SDS011;68943;49.472;17.970;2024-02-28T02:32:23;31.23;;;18.27;;
79478;SDS011;68943;49.472;17.970;2024-02-28T02:34:49;31.58;;;18.17;;
79478;SDS011;68943;49.472;17.970;2024-02-28T02:37:16;26.73;;;16.17;;
79478;SDS011;68943;49.472;17.970;2024-02-28T02:39:42;31.88;;;16.58;;
79478;SDS011;68943;49.472;17.970;2024-02-28T02:42:08;28.77;;;17.08;;
79478;SDS011;68943;49.472;17.970;2024-02-28T02:44:34;29.25;;;17.00;;
79478;SDS011;68943;49.472;17.970;2024-02-28T02:47:00;32.58;;;19.73;;
79478;SDS011;68943;49.472;17.970;2024-02-28T02:49:26;29.63;;;17.80;;
79478;SDS011;68943;49.472;17.970;2024-02-28T02:51:52;31.60;;;18.25;;
79478;SDS011;68943;49.472;17.970;2024-02-28T02:54:18;32.17;;;19.92;;
79478;SDS011;68943;49.472;17.970;2024-02-28T02:56:44;31.75;;;18.00;;
79478;SDS011;68943;49.472;17.970;2024-02-28T02:59:10;33.53;;;20.27;;
79478;SDS011;68943;49.472;17.970;2024-02-28T03:01:39;33.40;;;18.52;;
79478;SDS011;68943;49.472;17.970;2024-02-28T03:04:06;32.95;;;18.55;;
79478;SDS011;68943;49.472;17.970;2024-02-28T03:06:32;33.83;;;19.27;;
79478;SDS011;68943;49.472;17.970;2024-02-28T03:08:58;30.30;;;18.23;;
79478;SDS011;68943;49.472;17.970;2024-02-28T03:11:24;29.83;;;16.83;;
79478;SDS011;68943;49.472;17.970;2024-02-28T03:13:50;28.63;;;17.70;;
79478;SDS011;68943;49.472;17.970;2024-02-28T03:16:16;31.20;;;17.20;;
79478;SDS011;68943;49.472;17.970;2024-02-28T03:18:42;32.53;;;17.83;;
79478;SDS011;68943;49.472;17.970;2024-02-28T03:21:08;24.20;;;15.75;;
79478;SDS011;68943;49.472;17.970;2024-02-28T03:23:34;26.67;;;15.23;;
79478;SDS011;68943;49.472;17.970;2024-02-28T03:26:01;26.45;;;15.48;;
79478;SDS011;68943;49.472;17.970;2024-02-28T03:28:28;28.15;;;15.68;;
79478;SDS011;68943;49.472;17.970;2024-02-28T03:30:54;32.08;;;15.85;;
79478;SDS011;68943;49.472;17.970;2024-02-28T03:33:20;29.77;;;15.93;;
79478;SDS011;68943;49.472;17.970;2024-02-28T03:35:47;26.55;;;15.63;;
79478;SDS011;68943;49.472;17.970;2024-02-28T03:38:13;26.95;;;13.98;;
79478;SDS011;68943;49.472;17.970;2024-02-28T03:40:39;27.30;;;15.27;;
79478;SDS011;68943;49.472;17.970;2024-02-28T03:43:05;28.70;;;16.58;;
79478;SDS011;68943;49.472;17.970;2024-02-28T03:45:36;26.48;;;15.30;;
79478;SDS011;68943;49.472;17.970;2024-02-28T03:48:02;31.55;;;16.50;;
79478;SDS011;68943;49.472;17.970;2024-02-28T03:50:28;28.17;;;16.80;;
79478;SDS011;68943;49.472;17.970;2024-02-28T03:52:54;29.00;;;16.98;;
79478;SDS011;68943;49.472;17.970;2024-02-28T03:55:20;34.95;;;17.58;;
79478;SDS011;68943;49.472;17.970;2024-02-28T03:57:47;27.33;;;16.20;;
79478;SDS011;68943;49.472;17.970;2024-02-28T04:00:14;27.52;;;16.27;;
79478;SDS011;68943;49.472;17.970;2024-02-28T04:02:40;32.83;;;18.15;;
79478;SDS011;68943;49.472;17.970;2024-02-28T04:05:06;36.55;;;19.98;;
79478;SDS011;68943;49.472;17.970;2024-02-28T04:07:33;41.50;;;23.50;;
79478;SDS011;68943;49.472;17.970;2024-02-28T04:09:59;37.80;;;19.08;;
79478;SDS011;68943;49.472;17.970;2024-02-28T04:12:25;35.95;;;18.23;;
79478;SDS011;68943;49.472;17.970;2024-02-28T04:14:51;32.95;;;17.83;;
79478;SDS011;68943;49.472;17.970;2024-02-28T04:17:17;32.75;;;16.42;;
79478;SDS011;68943;49.472;17.970;2024-02-28T04:19:43;26.38;;;15.55;;
79478;SDS011;68943;49.472;17.970;2024-02-28T04:22:09;32.00;;;15.20;;
79478;SDS011;68943;49.472;17.970;2024-02-28T04:24:35;26.92;;;16.00;;
79478;SDS011;68943;49.472;17.970;2024-02-28T04:27:01;25.08;;;15.05;;
79478;SDS011;68943;49.472;17.970;2024-02-28T04:29:29;25.70;;;15.30;;
79478;SDS011;68943;49.472;17.970;2024-02-28T04:31:55;27.33;;;13.65;;
79478;SDS011;68943;49.472;17.970;2024-02-28T04:34:21;23.35;;;14.05;;
79478;SDS011;68943;49.472;17.970;2024-02-28T04:36:47;24.73;;;14.93;;
79478;SDS011;68943;49.472;17.970;2024-02-28T04:39:13;24.52;;;13.68;;
79478;SDS011;68943;49.472;17.970;2024-02-28T04:41:40;22.85;;;13.45;;
79478;SDS011;68943;49.472;17.970;2024-02-28T04:44:06;21.08;;;12.75;;
79478;SDS011;68943;49.472;17.970;2024-02-28T04:46:33;24.80;;;13.10;;
79478;SDS011;68943;49.472;17.970;2024-02-28T04:48:59;22.95;;;12.73;;
79478;SDS011;68943;49.472;17.970;2024-02-28T04:51:25;27.55;;;13.77;;
79478;SDS011;68943;49.472;17.970;2024-02-28T04:53:51;21.98;;;12.77;;
79478;SDS011;68943;49.472;17.970;2024-02-28T04:56:18;22.23;;;13.07;;
79478;SDS011;68943;49.472;17.970;2024-02-28T04:58:44;24.45;;;13.80;;
79478;SDS011;68943;49.472;17.970;2024-02-28T05:01:10;23.52;;;13.48;;
79478;SDS011;68943;49.472;17.970;2024-02-28T05:03:37;27.25;;;14.70;;
79478;SDS011;68943;49.472;17.970;2024-02-28T05:06:03;25.27;;;13.65;;
79478;SDS011;68943;49.472;17.970;2024-02-28T05:08:29;27.52;;;13.57;;
79478;SDS011;68943;49.472;17.970;2024-02-28T05:10:55;22.05;;;13.35;;
79478;SDS011;68943;49.472;17.970;2024-02-28T05:13:21;20.05;;;11.68;;
79478;SDS011;68943;49.472;17.970;2024-02-28T05:15:49;28.35;;;14.05;;
79478;SDS011;68943;49.472;17.970;2024-02-28T05:18:15;19.63;;;11.55;;
79478;SDS011;68943;49.472;17.970;2024-02-28T05:20:41;26.63;;;14.48;;
79478;SDS011;68943;49.472;17.970;2024-02-28T05:23:08;31.95;;;14.52;;
79478;SDS011;68943;49.472;17.970;2024-02-28T05:25:34;26.13;;;14.35;;
79478;SDS011;68943;49.472;17.970;2024-02-28T05:28:00;21.65;;;12.65;;
79478;SDS011;68943;49.472;17.970;2024-02-28T05:30:27;18.83;;;12.05;;
79478;SDS011;68943;49.472;17.970;2024-02-28T05:32:53;20.08;;;11.80;;
79478;SDS011;68943;49.472;17.970;2024-02-28T05:35:19;24.58;;;13.07;;
79478;SDS011;68943;49.472;17.970;2024-02-28T05:37:45;26.27;;;14.80;;
79478;SDS011;68943;49.472;17.970;2024-02-28T05:40:14;25.90;;;14.45;;
79478;SDS011;68943;49.472;17.970;2024-02-28T05:42:40;30.80;;;17.33;;
79478;SDS011;68943;49.472;17.970;2024-02-28T05:45:08;29.90;;;16.52;;
79478;SDS011;68943;49.472;17.970;2024-02-28T05:47:34;26.98;;;15.73;;
79478;SDS011;68943;49.472;17.970;2024-02-28T05:50:00;29.08;;;15.27;;
79478;SDS011;68943;49.472;17.970;2024-02-28T05:52:26;30.73;;;15.95;;
79478;SDS011;68943;49.472;17.970;2024-02-28T05:54:52;23.23;;;14.48;;
79478;SDS011;68943;49.472;17.970;2024-02-28T05:57:18;28.58;;;16.23;;
79478;SDS011;68943;49.472;17.970;2024-02-28T05:59:44;34.78;;;17.08;;
79478;SDS011;68943;49.472;17.970;2024-02-28T06:02:10;42.20;;;19.73;;
79478;SDS011;68943;49.472;17.970;2024-02-28T06:04:36;41.78;;;20.58;;
79478;SDS011;68943;49.472;17.970;2024-02-28T06:07:02;45.75;;;22.63;;
79478;SDS011;68943;49.472;17.970;2024-02-28T06:09:28;53.05;;;24.17;;
79478;SDS011;68943;49.472;17.970;2024-02-28T06:11:55;59.17;;;29.08;;
79478;SDS011;68943;49.472;17.970;2024-02-28T06:14:21;50.22;;;24.15;;
79478;SDS011;68943;49.472;17.970;2024-02-28T06:16:47;37.35;;;22.10;;
79478;SDS011;68943;49.472;17.970;2024-02-28T06:19:13;45.53;;;24.35;;
79478;SDS011;68943;49.472;17.970;2024-02-28T06:21:39;41.38;;;22.77;;
79478;SDS011;68943;49.472;17.970;2024-02-28T06:24:05;49.70;;;24.52;;
79478;SDS011;68943;49.472;17.970;2024-02-28T06:26:31;35.28;;;20.52;;
79478;SDS011;68943;49.472;17.970;2024-02-28T06:28:57;31.90;;;19.48;;
79478;SDS011;68943;49.472;17.970;2024-02-28T06:31:27;31.10;;;17.52;;
79478;SDS011;68943;49.472;17.970;2024-02-28T06:33:56;36.25;;;19.05;;
79478;SDS011;68943;49.472;17.970;2024-02-28T06:36:22;32.53;;;17.45;;
79478;SDS011;68943;49.472;17.970;2024-02-28T06:38:48;31.02;;;16.95;;
79478;SDS011;68943;49.472;17.970;2024-02-28T06:41:14;28.27;;;15.60;;
79478;SDS011;68943;49.472;17.970;2024-02-28T06:43:41;32.78;;;17.60;;
79478;SDS011;68943;49.472;17.970;2024-02-28T06:46:09;36.42;;;17.65;;
79478;SDS011;68943;49.472;17.970;2024-02-28T06:48:35;33.70;;;17.65;;
79478;SDS011;68943;49.472;17.970;2024-02-28T06:51:01;35.38;;;19.42;;
79478;SDS011;68943;49.472;17.970;2024-02-28T06:53:27;36.50;;;19.75;;
79478;SDS011;68943;49.472;17.970;2024-02-28T06:55:53;40.42;;;20.25;;
79478;SDS011;68943;49.472;17.970;2024-02-28T06:58:19;36.00;;;19.38;;
79478;SDS011;68943;49.472;17.970;2024-02-28T07:00:46;33.97;;;19.65;;
79478;SDS011;68943;49.472;17.970;2024-02-28T07:03:13;35.35;;;20.92;;
79478;SDS011;68943;49.472;17.970;2024-02-28T07:05:39;42.65;;;21.77;;
79478;SDS011;68943;49.472;17.970;2024-02-28T07:08:05;42.20;;;21.13;;
79478;SDS011;68943;49.472;17.970;2024-02-28T07:10:31;35.60;;;21.20;;
79478;SDS011;68943;49.472;17.970;2024-02-28T07:12:58;38.03;;;21.90;;
79478;SDS011;68943;49.472;17.970;2024-02-28T07:15:24;35.75;;;20.27;;
79478;SDS011;68943;49.472;17.970;2024-02-28T07:17:51;36.22;;;20.70;;
79478;SDS011;68943;49.472;17.970;2024-02-28T07:20:18;39.30;;;20.80;;
79478;SDS011;68943;49.472;17.970;2024-02-28T07:22:44;36.22;;;19.85;;
79478;SDS011;68943;49.472;17.970;2024-02-28T07:25:11;34.70;;;20.27;;
79478;SDS011;68943;49.472;17.970;2024-02-28T07:27:37;38.05;;;20.67;;
79478;SDS011;68943;49.472;17.970;2024-02-28T07:30:03;34.38;;;16.83;;
79478;SDS011;68943;49.472;17.970;2024-02-28T07:32:29;29.60;;;18.70;;
79478;SDS011;68943;49.472;17.970;2024-02-28T07:34:59;29.55;;;17.15;;
79478;SDS011;68943;49.472;17.970;2024-02-28T07:37:26;28.95;;;18.40;;
79478;SDS011;68943;49.472;17.970;2024-02-28T07:39:52;28.80;;;18.45;;
79478;SDS011;68943;49.472;17.970;2024-02-28T07:42:18;28.60;;;17.27;;
79478;SDS011;68943;49.472;17.970;2024-02-28T07:44:44;26.77;;;17.10;;
79478;SDS011;68943;49.472;17.970;2024-02-28T07:47:10;28.25;;;16.35;;
79478;SDS011;68943;49.472;17.970;2024-02-28T07:49:36;28.15;;;17.30;;
79478;SDS011;68943;49.472;17.970;2024-02-28T07:52:05;28.23;;;16.63;;
79478;SDS011;68943;49.472;17.970;2024-02-28T07:54:31;26.90;;;16.65;;
79478;SDS011;68943;49.472;17.970;2024-02-28T07:56:57;28.95;;;16.42;;
79478;SDS011;68943;49.472;17.970;2024-02-28T07:59:24;33.05;;;16.60;;
79478;SDS011;68943;49.472;17.970;2024-02-28T08:01:50;38.13;;;20.10;;
79478;SDS011;68943;49.472;17.970;2024-02-28T08:04:17;41.47;;;21.20;;
79478;SDS011;68943;49.472;17.970;2024-02-28T08:06:43;37.95;;;21.90;;
79478;SDS011;68943;49.472;17.970;2024-02-28T08:09:10;31.52;;;18.63;;
79478;SDS011;68943;49.472;17.970;2024-02-28T08:11:37;39.13;;;19.15;;
79478;SDS011;68943;49.472;17.970;2024-02-28T08:14:03;34.47;;;19.15;;
79478;SDS011;68943;49.472;17.970;2024-02-28T08:16:29;30.80;;;18.70;;
79478;SDS011;68943;49.472;17.970;2024-02-28T08:18:55;30.63;;;17.65;;
79478;SDS011;68943;49.472;17.970;2024-02-28T08:21:22;30.33;;;16.58;;
79478;SDS011;68943;49.472;17.970;2024-02-28T08:23:48;29.17;;;17.13;;
79478;SDS011;68943;49.472;17.970;2024-02-28T08:26:14;26.38;;;16.08;;
79478;SDS011;68943;49.472;17.970;2024-02-28T08:28:40;29.00;;;16.75;;
79478;SDS011;68943;49.472;17.970;2024-02-28T08:31:06;25.52;;;13.90;;
79478;SDS011;68943;49.472;17.970;2024-02-28T08:33:32;25.63;;;14.57;;
79478;SDS011;68943;49.472;17.970;2024-02-28T08:35:58;23.35;;;12.88;;
79478;SDS011;68943;49.472;17.970;2024-02-28T08:38:24;23.83;;;13.35;;
79478;SDS011;68943;49.472;17.970;2024-02-28T08:40:50;21.13;;;12.38;;
79478;SDS011;68943;49.472;17.970;2024-02-28T08:43:16;22.92;;;12.75;;
79478;SDS011;68943;49.472;17.970;2024-02-28T08:45:44;24.42;;;13.48;;
79478;SDS011;68943;49.472;17.970;2024-02-28T08:48:10;20.77;;;12.20;;
79478;SDS011;68943;49.472;17.970;2024-02-28T08:50:36;18.33;;;11.98;;
79478;SDS011;68943;49.472;17.970;2024-02-28T08:53:02;20.10;;;11.57;;
79478;SDS011;68943;49.472;17.970;2024-02-28T08:55:28;18.52;;;10.00;;
79478;SDS011;68943;49.472;17.970;2024-02-28T08:57:55;15.57;;;10.20;;
79478;SDS011;68943;49.472;17.970;2024-02-28T09:00:21;17.98;;;11.38;;
79478;SDS011;68943;49.472;17.970;2024-02-28T09:02:47;21.48;;;12.65;;
79478;SDS011;68943;49.472;17.970;2024-02-28T09:05:13;28.67;;;15.48;;
79478;SDS011;68943;49.472;17.970;2024-02-28T09:07:39;44.80;;;24.90;;
79478;SDS011;68943;49.472;17.970;2024-02-28T09:10:06;54.53;;;28.23;;
79478;SDS011;68943;49.472;17.970;2024-02-28T09:12:32;46.13;;;27.42;;
79478;SDS011;68943;49.472;17.970;2024-02-28T09:14:58;50.10;;;25.85;;
79478;SDS011;68943;49.472;17.970;2024-02-28T09:17:24;54.88;;;27.08;;
79478;SDS011;68943;49.472;17.970;2024-02-28T09:19:52;46.22;;;28.20;;
79478;SDS011;68943;49.472;17.970;2024-02-28T09:22:19;47.67;;;27.10;;
79478;SDS011;68943;49.472;17.970;2024-02-28T09:24:46;51.53;;;27.55;;
79478;SDS011;68943;49.472;17.970;2024-02-28T09:27:13;56.38;;;30.05;;
79478;SDS011;68943;49.472;17.970;2024-02-28T09:29:39;58.33;;;30.88;;
79478;SDS011;68943;49.472;17.970;2024-02-28T09:32:06;53.25;;;30.95;;
79478;SDS011;68943;49.472;17.970;2024-02-28T09:34:32;60.90;;;31.83;;
79478;SDS011;68943;49.472;17.970;2024-02-28T09:36:58;58.70;;;31.75;;
79478;SDS011;68943;49.472;17.970;2024-02-28T09:39:24;59.85;;;32.63;;
79478;SDS011;68943;49.472;17.970;2024-02-28T09:41:50;64.50;;;33.45;;
79478;SDS011;68943;49.472;17.970;2024-02-28T09:44:17;63.42;;;30.60;;
79478;SDS011;68943;49.472;17.970;2024-02-28T09:46:43;63.15;;;34.25;;
79478;SDS011;68943;49.472;17.970;2024-02-28T09:49:10;63.20;;;35.47;;
79478;SDS011;68943;49.472;17.970;2024-02-28T09:51:36;65.53;;;34.58;;
79478;SDS011;68943;49.472;17.970;2024-02-28T09:54:03;67.78;;;35.08;;
79478;SDS011;68943;49.472;17.970;2024-02-28T09:56:30;64.78;;;34.05;;
79478;SDS011;68943;49.472;17.970;2024-02-28T09:58:56;73.15;;;36.38;;
79478;SDS011;68943;49.472;17.970;2024-02-28T10:01:22;66.03;;;34.72;;
79478;SDS011;68943;49.472;17.970;2024-02-28T10:03:50;66.88;;;35.20;;
79478;SDS011;68943;49.472;17.970;2024-02-28T10:06:18;71.85;;;35.00;;
79478;SDS011;68943;49.472;17.970;2024-02-28T10:08:47;65.30;;;33.55;;
79478;SDS011;68943;49.472;17.970;2024-02-28T10:11:24;62.15;;;32.72;;
79478;SDS011;68943;49.472;17.970;2024-02-28T10:13:50;60.45;;;31.65;;
79478;SDS011;68943;49.472;17.970;2024-02-28T10:16:16;63.17;;;33.03;;
79478;SDS011;68943;49.472;17.970;2024-02-28T10:18:43;63.78;;;34.67;;
79478;SDS011;68943;49.472;17.970;2024-02-28T10:21:09;65.70;;;35.28;;
79478;SDS011;68943;49.472;17.970;2024-02-28T10:23:37;65.63;;;33.75;;
79478;SDS011;68943;49.472;17.970;2024-02-28T10:26:03;65.97;;;32.13;;
79478;SDS011;68943;49.472;17.970;2024-02-28T10:28:29;50.88;;;27.25;;
79478;SDS011;68943;49.472;17.970;2024-02-28T10:30:55;55.97;;;28.35;;
79478;SDS011;68943;49.472;17.970;2024-02-28T10:33:22;66.18;;;31.83;;
79478;SDS011;68943;49.472;17.970;2024-02-28T10:35:54;60.70;;;29.77;;
79478;SDS011;68943;49.472;17.970;2024-02-28T10:38:20;67.68;;;31.90;;
79478;SDS011;68943;49.472;17.970;2024-02-28T10:40:47;70.97;;;34.05;;
79478;SDS011;68943;49.472;17.970;2024-02-28T10:43:13;65.38;;;32.97;;
79478;SDS011;68943;49.472;17.970;2024-02-28T10:45:42;59.90;;;30.50;;
79478;SDS011;68943;49.472;17.970;2024-02-28T10:48:08;60.50;;;29.77;;
79478;SDS011;68943;49.472;17.970;2024-02-28T10:50:35;65.90;;;32.47;;
79478;SDS011;68943;49.472;17.970;2024-02-28T10:53:02;58.38;;;31.20;;
79478;SDS011;68943;49.472;17.970;2024-02-28T10:55:32;59.15;;;30.92;;
79478;SDS011;68943;49.472;17.970;2024-02-28T10:58:02;58.38;;;27.83;;
79478;SDS011;68943;49.472;17.970;2024-02-28T11:00:29;54.47;;;28.13;;
79478;SDS011;68943;49.472;17.970;2024-02-28T11:02:56;55.08;;;28.55;;
79478;SDS011;68943;49.472;17.970;2024-02-28T11:05:23;59.83;;;31.90;;
79478;SDS011;68943;49.472;17.970;2024-02-28T11:07:51;54.60;;;29.40;;
79478;SDS011;68943;49.472;17.970;2024-02-28T11:10:17;56.25;;;31.00;;
79478;SDS011;68943;49.472;17.970;2024-02-28T11:12:44;53.75;;;28.38;;
79478;SDS011;68943;49.472;17.970;2024-02-28T11:15:20;56.08;;;28.55;;
79478;SDS011;68943;49.472;17.970;2024-02-28T11:17:52;59.17;;;27.05;;
79478;SDS011;68943;49.472;17.970;2024-02-28T11:20:18;44.67;;;23.27;;
79478;SDS011;68943;49.472;17.970;2024-02-28T11:22:45;45.72;;;23.55;;
79478;SDS011;68943;49.472;17.970;2024-02-28T11:25:11;44.30;;;23.13;;
79478;SDS011;68943;49.472;17.970;2024-02-28T11:27:47;45.28;;;22.38;;
79478;SDS011;68943;49.472;17.970;2024-02-28T11:30:13;48.22;;;26.63;;
79478;SDS011;68943;49.472;17.970;2024-02-28T11:32:40;45.45;;;23.73;;
79478;SDS011;68943;49.472;17.970;2024-02-28T11:35:07;46.75;;;21.60;;
79478;SDS011;68943;49.472;17.970;2024-02-28T11:37:33;42.13;;;22.45;;
79478;SDS011;68943;49.472;17.970;2024-02-28T11:39:59;41.72;;;22.02;;
79478;SDS011;68943;49.472;17.970;2024-02-28T11:42:25;43.72;;;21.67;;
79478;SDS011;68943;49.472;17.970;2024-02-28T11:44:55;44.25;;;21.45;;
79478;SDS011;68943;49.472;17.970;2024-02-28T11:47:22;37.88;;;20.92;;
79478;SDS011;68943;49.472;17.970;2024-02-28T11:49:49;41.85;;;21.35;;
79478;SDS011;68943;49.472;17.970;2024-02-28T11:52:15;38.08;;;17.05;;
79478;SDS011;68943;49.472;17.970;2024-02-28T11:54:41;44.00;;;21.15;;
79478;SDS011;68943;49.472;17.970;2024-02-28T11:57:07;25.33;;;13.23;;
79478;SDS011;68943;49.472;17.970;2024-02-28T11:59:33;35.55;;;18.42;;
79478;SDS011;68943;49.472;17.970;2024-02-28T12:01:59;33.17;;;16.58;;
79478;SDS011;68943;49.472;17.970;2024-02-28T12:04:25;35.08;;;17.17;;
79478;SDS011;68943;49.472;17.970;2024-02-28T12:06:51;36.08;;;18.52;;
79478;SDS011;68943;49.472;17.970;2024-02-28T12:09:18;24.25;;;14.07;;
79478;SDS011;68943;49.472;17.970;2024-02-28T12:11:44;30.65;;;14.85;;
79478;SDS011;68943;49.472;17.970;2024-02-28T12:14:10;27.60;;;13.77;;
79478;SDS011;68943;49.472;17.970;2024-02-28T12:16:39;33.38;;;16.08;;
79478;SDS011;68943;49.472;17.970;2024-02-28T12:19:08;21.73;;;11.70;;
79478;SDS011;68943;49.472;17.970;2024-02-28T12:21:35;20.77;;;11.60;;
79478;SDS011;68943;49.472;17.970;2024-02-28T12:24:01;17.63;;;10.18;;
79478;SDS011;68943;49.472;17.970;2024-02-28T12:26:29;21.15;;;11.05;;
79478;SDS011;68943;49.472;17.970;2024-02-28T12:28:55;24.50;;;11.55;;
79478;SDS011;68943;49.472;17.970;2024-02-28T12:31:21;17.67;;;10.20;;
79478;SDS011;68943;49.472;17.970;2024-02-28T12:33:48;24.48;;;13.07;;
79478;SDS011;68943;49.472;17.970;2024-02-28T12:36:14;37.08;;;17.02;;
79478;SDS011;68943;49.472;17.970;2024-02-28T12:38:40;32.55;;;18.05;;
79478;SDS011;68943;49.472;17.970;2024-02-28T12:41:06;41.15;;;18.45;;
79478;SDS011;68943;49.472;17.970;2024-02-28T12:43:32;35.08;;;18.77;;
79478;SDS011;68943;49.472;17.970;2024-02-28T12:45:59;37.83;;;19.70;;
79478;SDS011;68943;49.472;17.970;2024-02-28T12:48:25;40.67;;;19.80;;
79478;SDS011;68943;49.472;17.970;2024-02-28T12:50:52;38.25;;;17.65;;
79478;SDS011;68943;49.472;17.970;2024-02-28T12:53:18;44.03;;;21.38;;
79478;SDS011;68943;49.472;17.970;2024-02-28T12:55:44;36.30;;;13.60;;
79478;SDS011;68943;49.472;17.970;2024-02-28T12:58:10;33.60;;;16.25;;
79478;SDS011;68943;49.472;17.970;2024-02-28T13:00:36;38.05;;;19.38;;
79478;SDS011;68943;49.472;17.970;2024-02-28T13:03:03;39.40;;;17.83;;
79478;SDS011;68943;49.472;17.970;2024-02-28T13:05:30;37.42;;;18.02;;
79478;SDS011;68943;49.472;17.970;2024-02-28T13:07:56;31.33;;;17.05;;
79478;SDS011;68943;49.472;17.970;2024-02-28T13:10:22;34.97;;;17.92;;
79478;SDS011;68943;49.472;17.970;2024-02-28T13:12:48;28.60;;;15.48;;
79478;SDS011;68943;49.472;17.970;2024-02-28T13:15:14;31.13;;;16.98;;
79478;SDS011;68943;49.472;17.970;2024-02-28T13:17:40;32.75;;;18.50;;
79478;SDS011;68943;49.472;17.970;2024-02-28T13:20:07;39.60;;;18.58;;
79478;SDS011;68943;49.472;17.970;2024-02-28T13:22:33;44.30;;;18.77;;
79478;SDS011;68943;49.472;17.970;2024-02-28T13:24:59;43.28;;;20.23;;
79478;SDS011;68943;49.472;17.970;2024-02-28T13:27:25;33.10;;;16.83;;
79478;SDS011;68943;49.472;17.970;2024-02-28T13:29:51;29.85;;;17.38;;
79478;SDS011;68943;49.472;17.970;2024-02-28T13:32:17;35.70;;;16.85;;
79478;SDS011;68943;49.472;17.970;2024-02-28T13:34:44;34.22;;;17.60;;
79478;SDS011;68943;49.472;17.970;2024-02-28T13:37:10;39.15;;;18.52;;
79478;SDS011;68943;49.472;17.970;2024-02-28T13:39:36;32.60;;;16.95;;
79478;SDS011;68943;49.472;17.970;2024-02-28T13:42:02;36.05;;;16.83;;
79478;SDS011;68943;49.472;17.970;2024-02-28T13:44:31;32.35;;;16.10;;
79478;SDS011;68943;49.472;17.970;2024-02-28T13:46:58;31.85;;;16.88;;
79478;SDS011;68943;49.472;17.970;2024-02-28T13:49:24;32.00;;;15.50;;
79478;SDS011;68943;49.472;17.970;2024-02-28T13:51:50;27.90;;;17.15;;
79478;SDS011;68943;49.472;17.970;2024-02-28T13:54:16;31.45;;;15.98;;
79478;SDS011;68943;49.472;17.970;2024-02-28T13:56:42;31.42;;;16.77;;
79478;SDS011;68943;49.472;17.970;2024-02-28T13:59:08;24.13;;;14.05;;
79478;SDS011;68943;49.472;17.970;2024-02-28T14:01:35;33.75;;;17.20;;
79478;SDS011;68943;49.472;17.970;2024-02-28T14:04:01;30.75;;;16.95;;